sensor_id;sensor_type;location;lat;lon;timestamp;temperature;humidity
7684;DHT22;3884;48.616;12.872;2023-10-08T00:02:15;13.40;99.90
7684;DHT22;3884;48.616;12.872;2023-10-08T00:04:48;13.40;1.00
7684;DHT22;3884;48.616;12.872;2023-10-08T00:07:17;13.40;99.90
7684;DHT22;3884;48.616;12.872;2023-10-08T00:09:48;13.40;1.00
7684;DHT22;3884;48.616;12.872;2023-10-08T00:12:16;13.40;1.00
7684;DHT22;3884;48.616;12.872;2023-10-08T00:14:47;13.50;99.90
7684;DHT22;3884;48.616;12.872;2023-10-08T00:17:19;13.40;99.90
7684;DHT22;3884;48.616;12.872;2023-10-08T00:19:46;13.50;99.90
7684;DHT22;3884;48.616;12.872;2023-10-08T00:22:18;13.30;1.00
7684;DHT22;3884;48.616;12.872;2023-10-08T00:24:45;13.30;99.90
7684;DHT22;3884;48.616;12.872;2023-10-08T00:27:15;13.30;99.90
7684;DHT22;3884;48.616;12.872;2023-10-08T00:29:43;13.30;99.90
7684;DHT22;3884;48.616;12.872;2023-10-08T00:32:12;13.30;99.90
7684;DHT22;3884;48.616;12.872;2023-10-08T00:34:41;13.20;99.90
7684;DHT22;3884;48.616;12.872;2023-10-08T00:37:10;13.30;99.90
7684;DHT22;3884;48.616;12.872;2023-10-08T00:39:40;13.40;1.00
7684;DHT22;3884;48.616;12.872;2023-10-08T00:42:11;13.40;99.90
7684;DHT22;3884;48.616;12.872;2023-10-08T00:44:39;13.30;1.00
7684;DHT22;3884;48.616;12.872;2023-10-08T00:47:15;13.20;1.00
7684;DHT22;3884;48.616;12.872;2023-10-08T00:49:43;13.20;1.00
7684;DHT22;3884;48.616;12.872;2023-10-08T00:52:20;13.20;1.00
7684;DHT22;3884;48.616;12.872;2023-10-08T00:54:56;13.20;1.00
7684;DHT22;3884;48.616;12.872;2023-10-08T00:57:35;13.10;99.90
7684;DHT22;3884;48.616;12.872;2023-10-08T01:00:10;13.20;1.00
7684;DHT22;3884;48.616;12.872;2023-10-08T01:02:48;13.20;1.00
7684;DHT22;3884;48.616;12.872;2023-10-08T01:05:20;13.10;99.90
7684;DHT22;3884;48.616;12.872;2023-10-08T01:07:52;13.20;99.90
7684;DHT22;3884;48.616;12.872;2023-10-08T01:10:21;13.30;99.90
7684;DHT22;3884;48.616;12.872;2023-10-08T01:12:56;13.30;99.90
7684;DHT22;3884;48.616;12.872;2023-10-08T01:15:40;13.30;99.90
7684;DHT22;3884;48.616;12.872;2023-10-08T01:18:12;13.40;99.90
7684;DHT22;3884;48.616;12.872;2023-10-08T01:20:43;13.30;1.00
7684;DHT22;3884;48.616;12.872;2023-10-08T01:23:19;13.30;99.90
7684;DHT22;3884;48.616;12.872;2023-10-08T01:25:49;13.30;1.00
7684;DHT22;3884;48.616;12.872;2023-10-08T01:28:18;13.20;99.90
7684;DHT22;3884;48.616;12.872;2023-10-08T01:30:51;13.20;99.90
7684;DHT22;3884;48.616;12.872;2023-10-08T01:33:21;13.20;99.90
7684;DHT22;3884;48.616;12.872;2023-10-08T01:35:53;13.20;1.00
7684;DHT22;3884;48.616;12.872;2023-10-08T01:38:27;13.20;99.90
7684;DHT22;3884;48.616;12.872;2023-10-08T01:40:54;13.20;68.60
7684;DHT22;3884;48.616;12.872;2023-10-08T01:43:22;13.10;1.00
7684;DHT22;3884;48.616;12.872;2023-10-08T01:45:53;13.00;1.00
7684;DHT22;3884;48.616;12.872;2023-10-08T01:48:20;13.20;1.00
7684;DHT22;3884;48.616;12.872;2023-10-08T01:50:54;13.20;1.00
7684;DHT22;3884;48.616;12.872;2023-10-08T01:53:21;13.20;51.00
7684;DHT22;3884;48.616;12.872;2023-10-08T01:55:50;13.20;1.00
7684;DHT22;3884;48.616;12.872;2023-10-08T01:58:20;13.10;1.00
7684;DHT22;3884;48.616;12.872;2023-10-08T02:00:49;13.10;1.00
7684;DHT22;3884;48.616;12.872;2023-10-08T02:03:18;13.10;42.60
7684;DHT22;3884;48.616;12.872;2023-10-08T02:05:48;13.00;1.00
7684;DHT22;3884;48.616;12.872;2023-10-08T02:08:20;13.00;99.90
7684;DHT22;3884;48.616;12.872;2023-10-08T02:10:47;13.00;99.90
7684;DHT22;3884;48.616;12.872;2023-10-08T02:13:16;13.10;1.00
7684;DHT22;3884;48.616;12.872;2023-10-08T02:15:48;13.10;1.00
7684;DHT22;3884;48.616;12.872;2023-10-08T02:18:17;13.20;14.90
7684;DHT22;3884;48.616;12.872;2023-10-08T02:20:45;13.20;99.90
7684;DHT22;3884;48.616;12.872;2023-10-08T02:23:13;13.10;1.00
7684;DHT22;3884;48.616;12.872;2023-10-08T02:25:41;13.10;1.00
7684;DHT22;3884;48.616;12.872;2023-10-08T02:28:08;13.10;99.90
7684;DHT22;3884;48.616;12.872;2023-10-08T02:30:39;13.00;99.90
7684;DHT22;3884;48.616;12.872;2023-10-08T02:33:08;13.00;1.00
7684;DHT22;3884;48.616;12.872;2023-10-08T02:35:41;13.00;1.00
7684;DHT22;3884;48.616;12.872;2023-10-08T02:38:10;13.00;99.90
7684;DHT22;3884;48.616;12.872;2023-10-08T02:40:39;13.10;99.90
7684;DHT22;3884;48.616;12.872;2023-10-08T02:43:10;13.10;1.00
7684;DHT22;3884;48.616;12.872;2023-10-08T02:45:43;13.10;46.70
7684;DHT22;3884;48.616;12.872;2023-10-08T02:48:13;13.00;1.00
7684;DHT22;3884;48.616;12.872;2023-10-08T02:50:41;13.10;1.00
7684;DHT22;3884;48.616;12.872;2023-10-08T02:53:11;13.10;1.00
7684;DHT22;3884;48.616;12.872;2023-10-08T02:55:43;13.10;1.00
7684;DHT22;3884;48.616;12.872;2023-10-08T02:58:12;13.00;1.00
7684;DHT22;3884;48.616;12.872;2023-10-08T03:00:43;13.10;13.20
7684;DHT22;3884;48.616;12.872;2023-10-08T03:03:12;13.00;99.90
7684;DHT22;3884;48.616;12.872;2023-10-08T03:05:44;13.00;99.90
7684;DHT22;3884;48.616;12.872;2023-10-08T03:08:15;13.00;28.90
7684;DHT22;3884;48.616;12.872;2023-10-08T03:10:47;12.90;99.90
7684;DHT22;3884;48.616;12.872;2023-10-08T03:13:21;13.00;1.00
7684;DHT22;3884;48.616;12.872;2023-10-08T03:15:50;12.90;99.90
7684;DHT22;3884;48.616;12.872;2023-10-08T03:18:33;12.90;1.00
7684;DHT22;3884;48.616;12.872;2023-10-08T03:21:02;12.80;1.00
7684;DHT22;3884;48.616;12.872;2023-10-08T03:23:30;13.00;1.00
7684;DHT22;3884;48.616;12.872;2023-10-08T03:26:01;12.80;1.00
7684;DHT22;3884;48.616;12.872;2023-10-08T03:28:38;12.80;1.00
7684;DHT22;3884;48.616;12.872;2023-10-08T03:31:08;12.80;1.00
7684;DHT22;3884;48.616;12.872;2023-10-08T03:33:41;12.80;99.90
7684;DHT22;3884;48.616;12.872;2023-10-08T03:36:14;12.80;99.90
7684;DHT22;3884;48.616;12.872;2023-10-08T03:38:47;12.70;1.00
7684;DHT22;3884;48.616;12.872;2023-10-08T03:41:22;12.70;1.00
7684;DHT22;3884;48.616;12.872;2023-10-08T03:43:53;12.70;1.00
7684;DHT22;3884;48.616;12.872;2023-10-08T03:46:29;12.60;99.90
7684;DHT22;3884;48.616;12.872;2023-10-08T03:48:57;12.60;99.90
7684;DHT22;3884;48.616;12.872;2023-10-08T03:51:30;12.70;99.90
7684;DHT22;3884;48.616;12.872;2023-10-08T03:54:05;12.70;1.00
7684;DHT22;3884;48.616;12.872;2023-10-08T03:56:42;12.80;1.00
7684;DHT22;3884;48.616;12.872;2023-10-08T03:59:13;12.90;99.90
7684;DHT22;3884;48.616;12.872;2023-10-08T04:01:47;12.90;1.00
7684;DHT22;3884;48.616;12.872;2023-10-08T04:04:21;12.80;99.90
7684;DHT22;3884;48.616;12.872;2023-10-08T04:06:56;12.70;1.00
7684;DHT22;3884;48.616;12.872;2023-10-08T04:09:43;12.70;1.00
7684;DHT22;3884;48.616;12.872;2023-10-08T04:12:13;12.70;1.00
7684;DHT22;3884;48.616;12.872;2023-10-08T04:14:44;12.80;1.00
7684;DHT22;3884;48.616;12.872;2023-10-08T04:17:12;12.80;99.90
7684;DHT22;3884;48.616;12.872;2023-10-08T04:19:47;12.80;99.90
7684;DHT22;3884;48.616;12.872;2023-10-08T04:22:14;12.80;99.90
7684;DHT22;3884;48.616;12.872;2023-10-08T04:24:43;12.70;99.90
7684;DHT22;3884;48.616;12.872;2023-10-08T04:27:11;12.70;1.00
7684;DHT22;3884;48.616;12.872;2023-10-08T04:29:40;12.80;99.90
7684;DHT22;3884;48.616;12.872;2023-10-08T04:32:08;12.80;65.60
7684;DHT22;3884;48.616;12.872;2023-10-08T04:34:39;12.70;99.90
7684;DHT22;3884;48.616;12.872;2023-10-08T04:37:12;12.70;99.90
7684;DHT22;3884;48.616;12.872;2023-10-08T04:39:44;12.80;99.90
7684;DHT22;3884;48.616;12.872;2023-10-08T04:42:20;12.70;42.10
7684;DHT22;3884;48.616;12.872;2023-10-08T04:44:51;12.70;34.80
7684;DHT22;3884;48.616;12.872;2023-10-08T04:47:19;12.60;1.00
7684;DHT22;3884;48.616;12.872;2023-10-08T04:49:58;12.50;99.90
7684;DHT22;3884;48.616;12.872;2023-10-08T04:52:25;12.50;99.90
7684;DHT22;3884;48.616;12.872;2023-10-08T04:54:53;12.50;99.90
7684;DHT22;3884;48.616;12.872;2023-10-08T04:57:22;12.50;1.00
7684;DHT22;3884;48.616;12.872;2023-10-08T04:59:51;12.40;1.00
7684;DHT22;3884;48.616;12.872;2023-10-08T05:02:23;12.40;99.90
7684;DHT22;3884;48.616;12.872;2023-10-08T05:05:01;12.20;99.90
7684;DHT22;3884;48.616;12.872;2023-10-08T05:08:03;12.20;1.00
7684;DHT22;3884;48.616;12.872;2023-10-08T05:10:44;12.20;67.50
7684;DHT22;3884;48.616;12.872;2023-10-08T05:13:26;12.10;6.50
7684;DHT22;3884;48.616;12.872;2023-10-08T05:15:58;12.20;2.00
7684;DHT22;3884;48.616;12.872;2023-10-08T05:18:37;12.40;1.00
7684;DHT22;3884;48.616;12.872;2023-10-08T05:21:22;12.50;1.00
7684;DHT22;3884;48.616;12.872;2023-10-08T05:24:08;12.80;89.10
7684;DHT22;3884;48.616;12.872;2023-10-08T05:26:38;13.10;1.00
7684;DHT22;3884;48.616;12.872;2023-10-08T05:29:10;13.10;1.00
7684;DHT22;3884;48.616;12.872;2023-10-08T05:32:05;13.10;99.90
7684;DHT22;3884;48.616;12.872;2023-10-08T05:34:58;12.90;1.00
7684;DHT22;3884;48.616;12.872;2023-10-08T05:37:39;12.90;99.90
7684;DHT22;3884;48.616;12.872;2023-10-08T05:40:19;12.90;6.40
7684;DHT22;3884;48.616;12.872;2023-10-08T05:43:07;12.90;99.90
7684;DHT22;3884;48.616;12.872;2023-10-08T05:45:47;12.90;99.90
7684;DHT22;3884;48.616;12.872;2023-10-08T05:48:39;13.10;1.00
7684;DHT22;3884;48.616;12.872;2023-10-08T05:51:11;13.40;92.60
7684;DHT22;3884;48.616;12.872;2023-10-08T05:53:49;13.90;1.00
7684;DHT22;3884;48.616;12.872;2023-10-08T05:56:23;14.20;1.00
7684;DHT22;3884;48.616;12.872;2023-10-08T05:59:18;14.40;1.00
7684;DHT22;3884;48.616;12.872;2023-10-08T06:01:52;14.60;1.00
7684;DHT22;3884;48.616;12.872;2023-10-08T06:04:33;14.70;1.00
7684;DHT22;3884;48.616;12.872;2023-10-08T06:07:18;14.90;1.00
7684;DHT22;3884;48.616;12.872;2023-10-08T06:09:59;14.90;99.90
7684;DHT22;3884;48.616;12.872;2023-10-08T06:12:29;15.10;99.90
7684;DHT22;3884;48.616;12.872;2023-10-08T06:15:10;15.20;99.90
7684;DHT22;3884;48.616;12.872;2023-10-08T06:17:37;15.30;99.90
7684;DHT22;3884;48.616;12.872;2023-10-08T06:20:24;15.40;99.90
7684;DHT22;3884;48.616;12.872;2023-10-08T06:22:54;15.40;99.90
7684;DHT22;3884;48.616;12.872;2023-10-08T06:25:28;15.40;99.90
7684;DHT22;3884;48.616;12.872;2023-10-08T06:27:58;15.40;99.90
7684;DHT22;3884;48.616;12.872;2023-10-08T06:30:26;15.50;99.90
7684;DHT22;3884;48.616;12.872;2023-10-08T06:33:00;15.60;99.90
7684;DHT22;3884;48.616;12.872;2023-10-08T06:35:42;15.60;99.90
7684;DHT22;3884;48.616;12.872;2023-10-08T06:38:23;15.70;99.90
7684;DHT22;3884;48.616;12.872;2023-10-08T06:41:05;15.70;99.90
7684;DHT22;3884;48.616;12.872;2023-10-08T06:43:38;15.70;99.90
7684;DHT22;3884;48.616;12.872;2023-10-08T06:46:19;15.60;99.90
7684;DHT22;3884;48.616;12.872;2023-10-08T06:49:00;15.60;99.90
7684;DHT22;3884;48.616;12.872;2023-10-08T06:51:42;15.70;99.90
7684;DHT22;3884;48.616;12.872;2023-10-08T06:54:09;15.70;99.90
7684;DHT22;3884;48.616;12.872;2023-10-08T06:56:50;15.70;99.90
7684;DHT22;3884;48.616;12.872;2023-10-08T07:02:35;15.90;99.90
7684;DHT22;3884;48.616;12.872;2023-10-08T07:05:05;15.90;99.90
7684;DHT22;3884;48.616;12.872;2023-10-08T07:07:35;16.00;99.90
7684;DHT22;3884;48.616;12.872;2023-10-08T07:10:05;16.10;99.90
7684;DHT22;3884;48.616;12.872;2023-10-08T07:12:36;16.10;99.90
7684;DHT22;3884;48.616;12.872;2023-10-08T07:15:09;16.20;99.90
7684;DHT22;3884;48.616;12.872;2023-10-08T07:17:51;16.20;99.90
7684;DHT22;3884;48.616;12.872;2023-10-08T07:20:20;16.20;99.90
7684;DHT22;3884;48.616;12.872;2023-10-08T07:23:00;16.30;99.90
7684;DHT22;3884;48.616;12.872;2023-10-08T07:25:35;16.30;99.90
7684;DHT22;3884;48.616;12.872;2023-10-08T07:28:16;16.30;99.90
7684;DHT22;3884;48.616;12.872;2023-10-08T07:30:45;16.40;99.90
7684;DHT22;3884;48.616;12.872;2023-10-08T07:33:16;16.50;99.90
7684;DHT22;3884;48.616;12.872;2023-10-08T07:35:51;16.40;99.90
7684;DHT22;3884;48.616;12.872;2023-10-08T07:38:28;16.50;99.90
7684;DHT22;3884;48.616;12.872;2023-10-08T07:41:08;16.40;99.90
7684;DHT22;3884;48.616;12.872;2023-10-08T07:43:38;16.50;99.90
7684;DHT22;3884;48.616;12.872;2023-10-08T07:46:08;16.50;99.90
7684;DHT22;3884;48.616;12.872;2023-10-08T07:48:43;16.50;99.90
7684;DHT22;3884;48.616;12.872;2023-10-08T07:51:10;16.50;99.90
7684;DHT22;3884;48.616;12.872;2023-10-08T07:53:38;16.40;99.90
7684;DHT22;3884;48.616;12.872;2023-10-08T07:56:08;16.40;99.90
7684;DHT22;3884;48.616;12.872;2023-10-08T07:58:36;16.50;99.90
7684;DHT22;3884;48.616;12.872;2023-10-08T08:01:06;16.40;99.90
7684;DHT22;3884;48.616;12.872;2023-10-08T08:03:35;16.40;99.90
7684;DHT22;3884;48.616;12.872;2023-10-08T08:06:05;16.50;99.90
7684;DHT22;3884;48.616;12.872;2023-10-08T08:08:33;16.40;99.90
7684;DHT22;3884;48.616;12.872;2023-10-08T08:11:01;16.30;99.90
7684;DHT22;3884;48.616;12.872;2023-10-08T08:13:32;16.40;99.90
7684;DHT22;3884;48.616;12.872;2023-10-08T08:16:00;16.50;99.90
7684;DHT22;3884;48.616;12.872;2023-10-08T08:18:36;16.50;99.90
7684;DHT22;3884;48.616;12.872;2023-10-08T08:21:09;16.50;99.90
7684;DHT22;3884;48.616;12.872;2023-10-08T08:23:40;16.50;99.90
7684;DHT22;3884;48.616;12.872;2023-10-08T08:26:14;16.50;99.90
7684;DHT22;3884;48.616;12.872;2023-10-08T08:28:55;16.60;99.90
7684;DHT22;3884;48.616;12.872;2023-10-08T08:31:23;16.70;99.90
7684;DHT22;3884;48.616;12.872;2023-10-08T08:33:51;16.70;99.90
7684;DHT22;3884;48.616;12.872;2023-10-08T08:39:34;16.80;99.90
7684;DHT22;3884;48.616;12.872;2023-10-08T08:42:03;16.80;99.90
7684;DHT22;3884;48.616;12.872;2023-10-08T08:44:32;16.80;99.90
7684;DHT22;3884;48.616;12.872;2023-10-08T08:47:00;16.80;99.90
7684;DHT22;3884;48.616;12.872;2023-10-08T08:49:32;16.70;99.90
7684;DHT22;3884;48.616;12.872;2023-10-08T08:52:00;16.80;99.90
7684;DHT22;3884;48.616;12.872;2023-10-08T08:54:28;16.80;99.90
7684;DHT22;3884;48.616;12.872;2023-10-08T08:56:58;16.90;99.90
7684;DHT22;3884;48.616;12.872;2023-10-08T08:59:28;17.00;99.90
7684;DHT22;3884;48.616;12.872;2023-10-08T09:01:56;16.80;99.90
7684;DHT22;3884;48.616;12.872;2023-10-08T09:04:29;16.90;99.90
7684;DHT22;3884;48.616;12.872;2023-10-08T09:06:56;16.90;99.90
7684;DHT22;3884;48.616;12.872;2023-10-08T09:09:31;17.00;99.90
7684;DHT22;3884;48.616;12.872;2023-10-08T09:12:00;17.00;99.90
7684;DHT22;3884;48.616;12.872;2023-10-08T09:14:31;17.00;99.90
7684;DHT22;3884;48.616;12.872;2023-10-08T09:17:00;17.00;99.90
7684;DHT22;3884;48.616;12.872;2023-10-08T09:19:30;17.00;99.90
7684;DHT22;3884;48.616;12.872;2023-10-08T09:22:03;17.20;99.90
7684;DHT22;3884;48.616;12.872;2023-10-08T09:24:31;17.10;99.90
7684;DHT22;3884;48.616;12.872;2023-10-08T09:27:01;17.10;99.90
7684;DHT22;3884;48.616;12.872;2023-10-08T09:29:28;17.10;99.90
7684;DHT22;3884;48.616;12.872;2023-10-08T09:31:56;17.20;99.90
7684;DHT22;3884;48.616;12.872;2023-10-08T09:34:26;17.20;99.90
7684;DHT22;3884;48.616;12.872;2023-10-08T09:36:56;17.30;99.90
7684;DHT22;3884;48.616;12.872;2023-10-08T09:39:25;17.40;99.90
7684;DHT22;3884;48.616;12.872;2023-10-08T09:41:55;17.50;99.90
7684;DHT22;3884;48.616;12.872;2023-10-08T09:44:24;17.60;99.90
7684;DHT22;3884;48.616;12.872;2023-10-08T09:47:04;17.70;99.90
7684;DHT22;3884;48.616;12.872;2023-10-08T09:49:32;17.70;99.90
7684;DHT22;3884;48.616;12.872;2023-10-08T09:52:02;17.70;99.90
7684;DHT22;3884;48.616;12.872;2023-10-08T09:54:35;17.60;99.90
7684;DHT22;3884;48.616;12.872;2023-10-08T09:57:05;17.70;99.90
7684;DHT22;3884;48.616;12.872;2023-10-08T09:59:34;17.60;99.90
7684;DHT22;3884;48.616;12.872;2023-10-08T10:02:02;17.60;99.90
7684;DHT22;3884;48.616;12.872;2023-10-08T10:04:31;17.70;99.90
7684;DHT22;3884;48.616;12.872;2023-10-08T10:06:58;17.70;99.90
7684;DHT22;3884;48.616;12.872;2023-10-08T10:09:35;17.60;99.90
7684;DHT22;3884;48.616;12.872;2023-10-08T10:12:05;17.60;99.90
7684;DHT22;3884;48.616;12.872;2023-10-08T10:14:42;17.60;99.90
7684;DHT22;3884;48.616;12.872;2023-10-08T10:17:15;17.60;99.90
7684;DHT22;3884;48.616;12.872;2023-10-08T10:19:44;17.60;99.90
7684;DHT22;3884;48.616;12.872;2023-10-08T10:22:14;17.50;99.90
7684;DHT22;3884;48.616;12.872;2023-10-08T10:24:42;17.50;99.90
7684;DHT22;3884;48.616;12.872;2023-10-08T10:27:15;17.70;99.90
7684;DHT22;3884;48.616;12.872;2023-10-08T10:29:44;17.50;99.90
7684;DHT22;3884;48.616;12.872;2023-10-08T10:32:14;17.50;99.90
7684;DHT22;3884;48.616;12.872;2023-10-08T10:34:42;17.50;99.90
7684;DHT22;3884;48.616;12.872;2023-10-08T10:37:10;17.50;99.90
7684;DHT22;3884;48.616;12.872;2023-10-08T10:39:51;17.50;99.90
7684;DHT22;3884;48.616;12.872;2023-10-08T10:42:19;17.50;99.90
7684;DHT22;3884;48.616;12.872;2023-10-08T10:44:49;17.50;99.90
7684;DHT22;3884;48.616;12.872;2023-10-08T10:47:19;17.50;99.90
7684;DHT22;3884;48.616;12.872;2023-10-08T10:50:08;17.60;99.90
7684;DHT22;3884;48.616;12.872;2023-10-08T10:52:57;17.50;99.90
7684;DHT22;3884;48.616;12.872;2023-10-08T10:55:35;17.60;99.90
7684;DHT22;3884;48.616;12.872;2023-10-08T10:58:03;17.50;99.90
7684;DHT22;3884;48.616;12.872;2023-10-08T11:00:43;17.50;99.90
7684;DHT22;3884;48.616;12.872;2023-10-08T11:03:22;17.60;99.90
7684;DHT22;3884;48.616;12.872;2023-10-08T11:05:53;17.60;99.90
7684;DHT22;3884;48.616;12.872;2023-10-08T11:08:25;17.50;99.90
7684;DHT22;3884;48.616;12.872;2023-10-08T11:11:00;17.50;99.90
7684;DHT22;3884;48.616;12.872;2023-10-08T11:13:33;17.50;99.90
7684;DHT22;3884;48.616;12.872;2023-10-08T11:16:07;17.50;99.90
7684;DHT22;3884;48.616;12.872;2023-10-08T11:18:35;17.50;99.90
7684;DHT22;3884;48.616;12.872;2023-10-08T11:21:09;17.50;99.90
7684;DHT22;3884;48.616;12.872;2023-10-08T11:23:42;17.70;99.90
7684;DHT22;3884;48.616;12.872;2023-10-08T11:26:12;17.80;99.90
7684;DHT22;3884;48.616;12.872;2023-10-08T11:28:42;17.80;99.90
7684;DHT22;3884;48.616;12.872;2023-10-08T11:31:15;17.80;99.90
7684;DHT22;3884;48.616;12.872;2023-10-08T11:33:45;17.80;99.90
7684;DHT22;3884;48.616;12.872;2023-10-08T11:36:20;17.90;99.90
7684;DHT22;3884;48.616;12.872;2023-10-08T11:38:53;17.80;99.90
7684;DHT22;3884;48.616;12.872;2023-10-08T11:41:27;17.80;99.90
7684;DHT22;3884;48.616;12.872;2023-10-08T11:43:55;17.80;99.90
7684;DHT22;3884;48.616;12.872;2023-10-08T11:46:26;17.70;99.90
7684;DHT22;3884;48.616;12.872;2023-10-08T11:48:58;17.80;99.90
7684;DHT22;3884;48.616;12.872;2023-10-08T11:51:31;17.90;99.90
7684;DHT22;3884;48.616;12.872;2023-10-08T11:53:59;17.80;99.90
7684;DHT22;3884;48.616;12.872;2023-10-08T11:56:27;17.90;99.90
7684;DHT22;3884;48.616;12.872;2023-10-08T11:58:55;17.90;99.90
7684;DHT22;3884;48.616;12.872;2023-10-08T12:01:23;18.20;99.90
7684;DHT22;3884;48.616;12.872;2023-10-08T12:03:51;18.50;99.90
7684;DHT22;3884;48.616;12.872;2023-10-08T12:06:18;18.60;99.90
7684;DHT22;3884;48.616;12.872;2023-10-08T12:08:47;18.50;99.90
7684;DHT22;3884;48.616;12.872;2023-10-08T12:11:19;18.50;99.90
7684;DHT22;3884;48.616;12.872;2023-10-08T12:13:48;18.30;99.90
7684;DHT22;3884;48.616;12.872;2023-10-08T12:16:16;18.10;99.90
7684;DHT22;3884;48.616;12.872;2023-10-08T12:18:48;18.20;99.90
7684;DHT22;3884;48.616;12.872;2023-10-08T12:21:20;18.20;99.90
7684;DHT22;3884;48.616;12.872;2023-10-08T12:23:50;18.10;99.90
7684;DHT22;3884;48.616;12.872;2023-10-08T12:26:18;18.20;99.90
7684;DHT22;3884;48.616;12.872;2023-10-08T12:28:45;18.20;99.90
7684;DHT22;3884;48.616;12.872;2023-10-08T12:31:14;18.30;99.90
7684;DHT22;3884;48.616;12.872;2023-10-08T12:33:42;18.20;99.90
7684;DHT22;3884;48.616;12.872;2023-10-08T12:36:21;18.20;99.90
7684;DHT22;3884;48.616;12.872;2023-10-08T12:38:49;18.30;99.90
7684;DHT22;3884;48.616;12.872;2023-10-08T12:41:23;18.30;99.90
7684;DHT22;3884;48.616;12.872;2023-10-08T12:43:50;18.30;99.90
7684;DHT22;3884;48.616;12.872;2023-10-08T12:46:19;18.40;99.90
7684;DHT22;3884;48.616;12.872;2023-10-08T12:48:50;18.40;99.90
7684;DHT22;3884;48.616;12.872;2023-10-08T12:51:21;18.50;99.90
7684;DHT22;3884;48.616;12.872;2023-10-08T12:53:50;18.30;99.90
7684;DHT22;3884;48.616;12.872;2023-10-08T12:56:24;18.30;99.90
7684;DHT22;3884;48.616;12.872;2023-10-08T12:58:58;18.30;99.90
7684;DHT22;3884;48.616;12.872;2023-10-08T13:01:25;18.20;99.90
7684;DHT22;3884;48.616;12.872;2023-10-08T13:03:55;18.30;99.90
7684;DHT22;3884;48.616;12.872;2023-10-08T13:06:28;18.20;99.90
7684;DHT22;3884;48.616;12.872;2023-10-08T13:08:56;18.20;99.90
7684;DHT22;3884;48.616;12.872;2023-10-08T13:11:26;18.30;99.90
7684;DHT22;3884;48.616;12.872;2023-10-08T13:13:56;18.30;99.90
7684;DHT22;3884;48.616;12.872;2023-10-08T13:16:25;18.30;99.90
7684;DHT22;3884;48.616;12.872;2023-10-08T13:18:57;18.30;99.90
7684;DHT22;3884;48.616;12.872;2023-10-08T13:21:24;18.30;99.90
7684;DHT22;3884;48.616;12.872;2023-10-08T13:23:53;18.30;99.90
7684;DHT22;3884;48.616;12.872;2023-10-08T13:26:22;18.40;99.90
7684;DHT22;3884;48.616;12.872;2023-10-08T13:28:50;18.40;99.90
7684;DHT22;3884;48.616;12.872;2023-10-08T13:31:17;18.30;99.90
7684;DHT22;3884;48.616;12.872;2023-10-08T13:33:45;18.30;99.90
7684;DHT22;3884;48.616;12.872;2023-10-08T13:36:14;18.30;99.90
7684;DHT22;3884;48.616;12.872;2023-10-08T13:38:42;18.10;99.90
7684;DHT22;3884;48.616;12.872;2023-10-08T13:41:13;18.20;99.90
7684;DHT22;3884;48.616;12.872;2023-10-08T13:43:45;18.20;99.90
7684;DHT22;3884;48.616;12.872;2023-10-08T13:46:13;18.30;99.90
7684;DHT22;3884;48.616;12.872;2023-10-08T13:48:41;18.20;99.90
7684;DHT22;3884;48.616;12.872;2023-10-08T13:51:12;18.40;99.90
7684;DHT22;3884;48.616;12.872;2023-10-08T13:53:40;18.50;99.90
7684;DHT22;3884;48.616;12.872;2023-10-08T13:56:11;18.70;99.90
7684;DHT22;3884;48.616;12.872;2023-10-08T13:58:40;18.90;99.90
7684;DHT22;3884;48.616;12.872;2023-10-08T14:01:12;19.00;99.90
7684;DHT22;3884;48.616;12.872;2023-10-08T14:03:46;19.10;99.90
7684;DHT22;3884;48.616;12.872;2023-10-08T14:06:14;19.30;99.90
7684;DHT22;3884;48.616;12.872;2023-10-08T14:08:42;19.20;99.90
7684;DHT22;3884;48.616;12.872;2023-10-08T14:11:18;19.20;99.90
7684;DHT22;3884;48.616;12.872;2023-10-08T14:13:46;19.40;99.90
7684;DHT22;3884;48.616;12.872;2023-10-08T14:16:14;19.50;99.90
7684;DHT22;3884;48.616;12.872;2023-10-08T14:18:43;19.60;99.90
7684;DHT22;3884;48.616;12.872;2023-10-08T14:21:16;19.50;99.90
7684;DHT22;3884;48.616;12.872;2023-10-08T14:23:44;19.50;99.90
7684;DHT22;3884;48.616;12.872;2023-10-08T14:26:12;19.60;99.90
7684;DHT22;3884;48.616;12.872;2023-10-08T14:28:41;19.60;99.90
7684;DHT22;3884;48.616;12.872;2023-10-08T14:31:11;19.60;99.90
7684;DHT22;3884;48.616;12.872;2023-10-08T14:33:41;19.70;99.90
7684;DHT22;3884;48.616;12.872;2023-10-08T14:36:22;19.70;99.90
7684;DHT22;3884;48.616;12.872;2023-10-08T14:39:06;19.70;99.90
7684;DHT22;3884;48.616;12.872;2023-10-08T14:41:59;19.70;99.90
7684;DHT22;3884;48.616;12.872;2023-10-08T14:44:43;19.60;99.90
7684;DHT22;3884;48.616;12.872;2023-10-08T14:47:13;19.70;99.90
7684;DHT22;3884;48.616;12.872;2023-10-08T14:49:40;19.80;99.90
7684;DHT22;3884;48.616;12.872;2023-10-08T14:52:08;19.70;99.90
7684;DHT22;3884;48.616;12.872;2023-10-08T14:54:35;19.80;99.90
7684;DHT22;3884;48.616;12.872;2023-10-08T14:57:03;19.80;99.90
7684;DHT22;3884;48.616;12.872;2023-10-08T14:59:31;19.70;99.90
7684;DHT22;3884;48.616;12.872;2023-10-08T15:01:58;19.60;99.90
7684;DHT22;3884;48.616;12.872;2023-10-08T15:04:27;19.60;99.90
7684;DHT22;3884;48.616;12.872;2023-10-08T15:06:55;19.50;99.90
7684;DHT22;3884;48.616;12.872;2023-10-08T15:09:22;19.40;99.90
7684;DHT22;3884;48.616;12.872;2023-10-08T15:11:49;19.20;99.90
7684;DHT22;3884;48.616;12.872;2023-10-08T15:14:17;19.20;99.90
7684;DHT22;3884;48.616;12.872;2023-10-08T15:16:46;19.10;99.90
7684;DHT22;3884;48.616;12.872;2023-10-08T15:19:18;19.10;99.90
7684;DHT22;3884;48.616;12.872;2023-10-08T15:21:47;19.10;99.90
7684;DHT22;3884;48.616;12.872;2023-10-08T15:24:17;19.00;99.90
7684;DHT22;3884;48.616;12.872;2023-10-08T15:26:44;18.90;99.90
7684;DHT22;3884;48.616;12.872;2023-10-08T15:29:13;19.00;99.90
7684;DHT22;3884;48.616;12.872;2023-10-08T15:31:40;18.90;99.90
7684;DHT22;3884;48.616;12.872;2023-10-08T15:34:08;18.80;99.90
7684;DHT22;3884;48.616;12.872;2023-10-08T15:36:38;18.80;99.90
7684;DHT22;3884;48.616;12.872;2023-10-08T15:39:06;18.70;99.90
7684;DHT22;3884;48.616;12.872;2023-10-08T15:41:36;18.70;99.90
7684;DHT22;3884;48.616;12.872;2023-10-08T15:44:03;18.70;99.90
7684;DHT22;3884;48.616;12.872;2023-10-08T15:46:31;18.60;99.90
7684;DHT22;3884;48.616;12.872;2023-10-08T15:49:00;18.50;99.90
7684;DHT22;3884;48.616;12.872;2023-10-08T15:51:28;18.50;99.90
7684;DHT22;3884;48.616;12.872;2023-10-08T15:53:57;18.40;99.90
7684;DHT22;3884;48.616;12.872;2023-10-08T15:56:27;18.40;99.90
7684;DHT22;3884;48.616;12.872;2023-10-08T15:58:56;18.50;99.90
7684;DHT22;3884;48.616;12.872;2023-10-08T16:01:23;18.40;99.90
7684;DHT22;3884;48.616;12.872;2023-10-08T16:03:51;18.30;99.90
7684;DHT22;3884;48.616;12.872;2023-10-08T16:06:19;18.20;1.00
7684;DHT22;3884;48.616;12.872;2023-10-08T16:08:47;18.10;1.00
7684;DHT22;3884;48.616;12.872;2023-10-08T16:11:14;18.10;1.00
7684;DHT22;3884;48.616;12.872;2023-10-08T16:13:42;18.10;1.00
7684;DHT22;3884;48.616;12.872;2023-10-08T16:16:09;18.00;1.00
7684;DHT22;3884;48.616;12.872;2023-10-08T16:18:37;17.90;1.00
7684;DHT22;3884;48.616;12.872;2023-10-08T16:21:05;17.80;1.00
7684;DHT22;3884;48.616;12.872;2023-10-08T16:23:35;18.00;1.00
7684;DHT22;3884;48.616;12.872;2023-10-08T16:26:02;17.80;1.00